Time;durP1;ratioP1;P1;durP2;ratioP2;P2;SDS_P1;SDS_P2;PMS_P1;PMS_P2;Temp;Humidity;BMP_temperature;BMP_pressure;BME280_temperature;BME280_humidity;BME280_pressure;Samples;Min_cycle;Max_cycle;Signal;HPM_P1;HPM_P2
2021/08/23 00:00:57;;;;;;;1.70;1.60;;;;;;;;;;4899406;29;20218;-83
2021/08/23 00:03:25;;;;;;;2.10;1.90;;;;;;;;;;4900224;29;20234;-84
2021/08/23 00:05:54;;;;;;;2.10;2.00;;;;;;;;;;4900091;29;20200;-84
2021/08/23 00:08:22;;;;;;;4.55;3.35;;;;;;;;;;4899800;29;20268;-83
2021/08/23 00:10:50;;;;;;;1.55;1.45;;;;;;;;;;4900128;29;20214;-83
2021/08/23 00:13:17;;;;;;;1.50;1.40;;;;;;;;;;4899935;29;20227;-83
2021/08/23 00:15:47;;;;;;;2.65;2.45;;;;;;;;;;4900197;29;20207;-83
2021/08/23 00:18:18;;;;;;;2.78;2.58;;;;;;;;;;4900064;29;20191;-84
2021/08/23 00:20:51;;;;;;;2.83;2.63;;;;;;;;;;4900213;29;20219;-83
2021/08/23 00:23:21;;;;;;;3.85;3.10;;;;;;;;;;4900157;29;20603;-84
2021/08/23 00:25:49;;;;;;;3.47;3.17;;;;;;;;;;4893830;29;20230;-83
2021/08/23 00:28:16;;;;;;;3.90;3.60;;;;;;;;;;4900919;29;20247;-84
2021/08/23 00:30:44;;;;;;;3.30;3.00;;;;;;;;;;4900696;29;20195;-83
2021/08/23 00:33:12;;;;;;;2.80;2.58;;;;;;;;;;4898468;29;20251;-84
2021/08/23 00:35:40;;;;;;;3.53;3.17;;;;;;;;;;4909719;29;20196;-83
2021/08/23 00:38:08;;;;;;;3.25;2.95;;;;;;;;;;4911563;29;20188;-82
2021/08/23 00:40:37;;;;;;;4.85;2.85;;;;;;;;;;4901336;29;20263;-82
2021/08/23 00:43:06;;;;;;;3.70;3.40;;;;;;;;;;4897593;29;20215;-82
2021/08/23 00:45:34;;;;;;;3.40;3.10;;;;;;;;;;4897649;29;20184;-83
2021/08/23 00:48:01;;;;;;;2.75;2.55;;;;;;;;;;4897776;29;20184;-83
2021/08/23 00:50:29;;;;;;;2.40;2.20;;;;;;;;;;4897946;29;20187;-83
2021/08/23 00:52:56;;;;;;;2.28;2.10;;;;;;;;;;4897406;29;20184;-82
2021/08/23 00:55:24;;;;;;;2.30;2.10;;;;;;;;;;4897642;29;20202;-82
2021/08/23 00:57:53;;;;;;;2.45;2.35;;;;;;;;;;4900563;29;20622;-82
2021/08/23 01:00:21;;;;;;;2.20;2.10;;;;;;;;;;4901016;29;20195;-83
2021/08/23 01:02:53;;;;;;;3.50;3.20;;;;;;;;;;4900511;29;20639;-82
2021/08/23 01:05:26;;;;;;;3.10;2.90;;;;;;;;;;4901185;29;20226;-83
2021/08/23 01:07:59;;;;;;;2.70;2.50;;;;;;;;;;4901309;29;20702;-83
2021/08/23 01:10:31;;;;;;;2.13;2.03;;;;;;;;;;4900922;29;20191;-82
2021/08/23 01:13:01;;;;;;;1.95;1.83;;;;;;;;;;4900760;29;20263;-83
2021/08/23 01:15:29;;;;;;;1.90;1.80;;;;;;;;;;4900919;29;20561;-83
2021/08/23 01:17:56;;;;;;;1.92;1.67;;;;;;;;;;4901289;29;20183;-83
2021/08/23 01:20:24;;;;;;;1.48;1.38;;;;;;;;;;4901234;29;20191;-83
2021/08/23 01:22:55;;;;;;;1.75;1.65;;;;;;;;;;4900770;29;20566;-83
2021/08/23 01:25:27;;;;;;;1.50;1.40;;;;;;;;;;4864175;29;20216;-83
2021/08/23 01:28:07;;;;;;;1.63;1.52;;;;;;;;;;4863794;29;20203;-83
2021/08/23 01:30:42;;;;;;;2.00;1.90;;;;;;;;;;4864300;29;20195;-83
2021/08/23 01:33:11;;;;;;;2.22;2.13;;;;;;;;;;4863959;29;20324;-84
2021/08/23 01:35:39;;;;;;;2.50;2.30;;;;;;;;;;4863934;29;20248;-83
2021/08/23 01:38:07;;;;;;;2.35;2.25;;;;;;;;;;4863953;29;20208;-83
2021/08/23 01:40:34;;;;;;;3.08;2.83;;;;;;;;;;4863982;29;20216;-83
2021/08/23 01:43:02;;;;;;;2.55;2.35;;;;;;;;;;4864068;29;20244;-83
2021/08/23 01:45:31;;;;;;;3.40;3.20;;;;;;;;;;4863991;29;20288;-83
2021/08/23 01:47:58;;;;;;;2.97;2.78;;;;;;;;;;4863174;29;20216;-83
2021/08/23 01:50:27;;;;;;;3.40;3.10;;;;;;;;;;4861658;29;20715;-83
2021/08/23 01:52:56;;;;;;;3.65;3.30;;;;;;;;;;4859259;29;20583;-89
2021/08/23 01:55:24;;;;;;;3.95;3.65;;;;;;;;;;4861877;29;20192;-87
2021/08/23 01:57:52;;;;;;;3.72;3.42;;;;;;;;;;4862466;29;20189;-87
2021/08/23 02:00:21;;;;;;;5.05;4.57;;;;;;;;;;4863039;29;20193;-87
2021/08/23 02:02:49;;;;;;;3.30;3.05;;;;;;;;;;4860901;29;20577;-87
2021/08/23 02:05:17;;;;;;;4.72;4.32;;;;;;;;;;4862447;29;20228;-86
2021/08/23 02:07:48;;;;;;;4.07;3.50;;;;;;;;;;4862259;29;20219;-87
2021/08/23 02:10:17;;;;;;;4.55;4.22;;;;;;;;;;4862307;29;20185;-87
2021/08/23 02:12:45;;;;;;;3.97;3.67;;;;;;;;;;4862158;29;20686;-88
2021/08/23 02:15:12;;;;;;;3.10;2.90;;;;;;;;;;4861963;29;20636;-87
2021/08/23 02:17:40;;;;;;;3.47;3.17;;;;;;;;;;4861983;29;20253;-87
2021/08/23 02:20:09;;;;;;;3.03;2.83;;;;;;;;;;4861542;29;20189;-85
2021/08/23 02:22:38;;;;;;;4.03;3.72;;;;;;;;;;4861623;29;20192;-87
2021/08/23 02:25:08;;;;;;;5.18;4.78;;;;;;;;;;4896670;29;20765;-86
2021/08/23 02:27:36;;;;;;;5.40;4.93;;;;;;;;;;4900434;29;20199;-87
2021/08/23 02:30:05;;;;;;;5.28;4.80;;;;;;;;;;4900777;29;20562;-85
2021/08/23 02:32:33;;;;;;;3.97;3.67;;;;;;;;;;4899551;29;20850;-86
2021/08/23 02:35:01;;;;;;;5.00;4.60;;;;;;;;;;4899929;29;20235;-86
2021/08/23 02:37:29;;;;;;;4.05;3.65;;;;;;;;;;4899391;29;20282;-88
2021/08/23 02:39:58;;;;;;;5.18;4.38;;;;;;;;;;4899133;29;20194;-87
2021/08/23 02:42:27;;;;;;;7.03;5.57;;;;;;;;;;4899252;29;20207;-87
2021/08/23 02:44:54;;;;;;;3.78;3.47;;;;;;;;;;4901910;29;20231;-86
2021/08/23 02:47:21;;;;;;;4.20;3.90;;;;;;;;;;4885902;29;20271;-86
2021/08/23 02:49:50;;;;;;;4.28;3.97;;;;;;;;;;4884419;29;20278;-87
2021/08/23 02:52:17;;;;;;;3.92;3.63;;;;;;;;;;4879830;29;20212;-87
2021/08/23 02:54:45;;;;;;;3.40;3.10;;;;;;;;;;4879889;29;20230;-88
2021/08/23 02:57:13;;;;;;;5.00;4.60;;;;;;;;;;4879282;29;20663;-87
2021/08/23 02:59:42;;;;;;;4.43;3.95;;;;;;;;;;4880216;29;20203;-87
2021/08/23 03:02:10;;;;;;;3.53;3.00;;;;;;;;;;4880398;29;20196;-87
2021/08/23 03:04:37;;;;;;;2.72;2.53;;;;;;;;;;4880169;29;20235;-86
2021/08/23 03:07:05;;;;;;;4.25;3.63;;;;;;;;;;4879859;29;20737;-87
2021/08/23 03:09:32;;;;;;;4.72;4.32;;;;;;;;;;4879561;29;20218;-86
2021/08/23 03:12:01;;;;;;;3.97;3.55;;;;;;;;;;4885466;29;20196;-88
2021/08/23 03:14:30;;;;;;;2.72;2.53;;;;;;;;;;4898210;29;20231;-87
2021/08/23 03:16:59;;;;;;;4.95;4.47;;;;;;;;;;4899159;29;20196;-87
2021/08/23 03:19:33;;;;;;;4.00;3.67;;;;;;;;;;4899182;29;20674;-86
2021/08/23 03:22:00;;;;;;;2.47;2.38;;;;;;;;;;4899335;29;20217;-87
2021/08/23 03:24:28;;;;;;;2.95;2.75;;;;;;;;;;4912191;23;20325;-86
2021/08/23 03:26:56;;;;;;;3.35;3.08;;;;;;;;;;4913459;29;20230;-85
2021/08/23 03:29:23;;;;;;;2.45;2.30;;;;;;;;;;4912934;29;20186;-84
2021/08/23 03:31:51;;;;;;;2.90;2.70;;;;;;;;;;4913685;29;20183;-84
2021/08/23 03:34:21;;;;;;;2.63;2.42;;;;;;;;;;4913654;29;20231;-85
2021/08/23 03:36:48;;;;;;;2.55;2.35;;;;;;;;;;4913875;29;20662;-86
2021/08/23 03:39:17;;;;;;;2.20;2.05;;;;;;;;;;4913779;29;20203;-85
2021/08/23 03:41:45;;;;;;;3.25;3.05;;;;;;;;;;4913896;29;20652;-86
2021/08/23 03:44:12;;;;;;;3.38;3.08;;;;;;;;;;4913622;29;20237;-85
2021/08/23 03:46:40;;;;;;;3.50;3.20;;;;;;;;;;4913817;29;20218;-86
2021/08/23 03:49:07;;;;;;;3.33;3.03;;;;;;;;;;4914183;29;20214;-86
2021/08/23 03:51:36;;;;;;;3.08;2.88;;;;;;;;;;4914178;29;20197;-86
2021/08/23 03:54:04;;;;;;;2.17;2.03;;;;;;;;;;4913464;29;20222;-86
2021/08/23 03:56:31;;;;;;;2.35;2.25;;;;;;;;;;4913890;29;20232;-86
2021/08/23 03:58:58;;;;;;;2.50;2.30;;;;;;;;;;4913659;29;20210;-86
2021/08/23 04:01:26;;;;;;;2.33;2.13;;;;;;;;;;4913806;29;20210;-86
2021/08/23 04:03:54;;;;;;;2.38;1.95;;;;;;;;;;4913577;29;20233;-85
2021/08/23 04:06:22;;;;;;;2.60;2.40;;;;;;;;;;4913782;29;20207;-86
2021/08/23 04:08:51;;;;;;;2.80;2.33;;;;;;;;;;4914127;29;20210;-85
2021/08/23 04:11:18;;;;;;;1.85;1.75;;;;;;;;;;4914430;29;20191;-86
2021/08/23 04:13:46;;;;;;;2.03;1.92;;;;;;;;;;4913831;29;20218;-86
2021/08/23 04:16:14;;;;;;;1.73;1.63;;;;;;;;;;4913905;29;20194;-85
2021/08/23 04:18:43;;;;;;;1.73;1.63;;;;;;;;;;4913940;29;20190;-86
2021/08/23 04:21:10;;;;;;;1.63;1.52;;;;;;;;;;4913863;29;20242;-86
2021/08/23 04:23:38;;;;;;;3.13;2.70;;;;;;;;;;4912844;29;20236;-85
2021/08/23 04:26:06;;;;;;;2.28;2.08;;;;;;;;;;4925027;29;20210;-86
2021/08/23 04:28:34;;;;;;;3.67;3.38;;;;;;;;;;4913734;29;20190;-87
2021/08/23 04:31:01;;;;;;;3.33;3.00;;;;;;;;;;4914020;29;20198;-83
2021/08/23 04:33:29;;;;;;;2.90;2.70;;;;;;;;;;4916360;29;20230;-82
2021/08/23 04:35:56;;;;;;;5.35;4.45;;;;;;;;;;4917042;29;20282;-83
2021/08/23 04:38:24;;;;;;;4.90;4.50;;;;;;;;;;4916871;29;20186;-84
2021/08/23 04:40:52;;;;;;;6.40;5.80;;;;;;;;;;4917107;29;20195;-83
2021/08/23 04:43:21;;;;;;;5.82;5.35;;;;;;;;;;4918158;29;20226;-83
2021/08/23 04:45:48;;;;;;;4.68;4.28;;;;;;;;;;4917700;29;20690;-83
2021/08/23 04:48:16;;;;;;;4.35;4.05;;;;;;;;;;4917378;29;20187;-83
2021/08/23 04:50:43;;;;;;;4.07;3.78;;;;;;;;;;4917024;29;20203;-83
2021/08/23 04:53:10;;;;;;;5.00;4.50;;;;;;;;;;4916804;29;20191;-83
2021/08/23 04:55:38;;;;;;;7.10;6.43;;;;;;;;;;4916128;29;20229;-82
2021/08/23 04:58:05;;;;;;;7.05;6.38;;;;;;;;;;4921728;29;20194;-82
2021/08/23 05:00:34;;;;;;;4.70;4.32;;;;;;;;;;4935944;29;20198;-83
2021/08/23 05:03:02;;;;;;;5.80;5.30;;;;;;;;;;4935411;29;20189;-83
2021/08/23 05:05:29;;;;;;;5.45;5.03;;;;;;;;;;4927349;29;20194;-84
2021/08/23 05:07:56;;;;;;;3.67;3.35;;;;;;;;;;4916626;29;20241;-83
2021/08/23 05:10:24;;;;;;;4.63;4.28;;;;;;;;;;4926877;29;20562;-82
2021/08/23 05:12:56;;;;;;;4.25;3.90;;;;;;;;;;4935752;29;20183;-82
2021/08/23 05:15:23;;;;;;;4.72;4.32;;;;;;;;;;4935437;29;20198;-84
2021/08/23 05:17:52;;;;;;;4.55;4.25;;;;;;;;;;4935226;29;20583;-82
2021/08/23 05:20:20;;;;;;;4.15;3.85;;;;;;;;;;4935975;29;20194;-82
2021/08/23 05:22:48;;;;;;;3.70;3.40;;;;;;;;;;4935962;29;20221;-83
2021/08/23 05:25:16;;;;;;;3.30;3.08;;;;;;;;;;4916811;29;20238;-83
2021/08/23 05:27:43;;;;;;;3.72;3.42;;;;;;;;;;4916288;29;20286;-83
2021/08/23 05:30:12;;;;;;;2.70;2.50;;;;;;;;;;4916285;29;20221;-82
2021/08/23 05:32:39;;;;;;;4.82;4.43;;;;;;;;;;4916196;29;20195;-82
2021/08/23 05:35:10;;;;;;;5.78;5.28;;;;;;;;;;4915428;29;20716;-82
2021/08/23 05:37:38;;;;;;;5.10;3.70;;;;;;;;;;4921516;29;20190;-82
2021/08/23 05:40:07;;;;;;;4.43;4.03;;;;;;;;;;4935113;29;20182;-83
2021/08/23 05:42:35;;;;;;;3.92;3.63;;;;;;;;;;4935511;29;20190;-82
2021/08/23 05:45:02;;;;;;;5.35;4.47;;;;;;;;;;4934862;29;20232;-82
2021/08/23 05:47:30;;;;;;;4.85;4.45;;;;;;;;;;4938662;29;20218;-84
2021/08/23 05:49:58;;;;;;;5.82;4.68;;;;;;;;;;4936529;29;20182;-83
2021/08/23 05:52:27;;;;;;;3.65;3.15;;;;;;;;;;4935138;29;20205;-84
2021/08/23 05:54:55;;;;;;;4.30;3.90;;;;;;;;;;4934506;29;20232;-83
2021/08/23 05:57:24;;;;;;;4.63;4.15;;;;;;;;;;4934965;29;20186;-83
2021/08/23 05:59:51;;;;;;;7.55;4.80;;;;;;;;;;4935069;29;20190;-83
2021/08/23 06:02:18;;;;;;;5.18;4.78;;;;;;;;;;4935165;29;20224;-85
2021/08/23 06:04:46;;;;;;;5.45;4.32;;;;;;;;;;4934916;29;20233;-82
2021/08/23 06:07:14;;;;;;;4.97;4.30;;;;;;;;;;4934550;29;20691;-82
2021/08/23 06:09:43;;;;;;;5.15;4.75;;;;;;;;;;4934551;29;20194;-83
2021/08/23 06:12:11;;;;;;;5.38;4.88;;;;;;;;;;4935926;29;20189;-84
2021/08/23 06:14:40;;;;;;;5.28;4.78;;;;;;;;;;4937030;29;20230;-83
2021/08/23 06:17:08;;;;;;;4.88;4.47;;;;;;;;;;4938188;29;20245;-83
2021/08/23 06:19:36;;;;;;;6.30;4.28;;;;;;;;;;4936959;29;20638;-82
2021/08/23 06:22:04;;;;;;;4.75;4.25;;;;;;;;;;4926336;29;20201;-84
2021/08/23 06:24:32;;;;;;;3.72;3.40;;;;;;;;;;4931841;29;20728;-81
2021/08/23 06:27:00;;;;;;;4.30;3.67;;;;;;;;;;4917806;29;20241;-84
2021/08/23 06:29:28;;;;;;;3.88;3.58;;;;;;;;;;4917536;29;20217;-82
2021/08/23 06:31:56;;;;;;;3.58;3.28;;;;;;;;;;4917670;29;20202;-85
2021/08/23 06:34:24;;;;;;;4.00;3.45;;;;;;;;;;4920955;29;20226;-84
2021/08/23 06:36:51;;;;;;;2.58;2.38;;;;;;;;;;4918103;29;20183;-84
2021/08/23 06:39:18;;;;;;;2.95;2.67;;;;;;;;;;4917707;29;20206;-84
2021/08/23 06:41:46;;;;;;;2.75;2.55;;;;;;;;;;4918490;29;20221;-83
2021/08/23 06:44:15;;;;;;;3.17;2.97;;;;;;;;;;4921111;29;20214;-85
2021/08/23 06:46:43;;;;;;;3.78;3.45;;;;;;;;;;4918551;29;20568;-84
2021/08/23 06:49:10;;;;;;;4.13;3.72;;;;;;;;;;4916979;29;20214;-83
2021/08/23 06:51:38;;;;;;;3.72;3.42;;;;;;;;;;4916982;29;20202;-83
2021/08/23 06:54:05;;;;;;;4.45;4.05;;;;;;;;;;4916205;29;20233;-82
2021/08/23 06:56:33;;;;;;;4.38;3.97;;;;;;;;;;4917567;29;20199;-82
2021/08/23 06:59:00;;;;;;;5.20;4.80;;;;;;;;;;4916119;29;20199;-83
2021/08/23 07:01:29;;;;;;;4.43;4.05;;;;;;;;;;4916643;29;20218;-84
2021/08/23 07:03:56;;;;;;;4.55;4.10;;;;;;;;;;4924403;29;20243;-81
2021/08/23 07:06:24;;;;;;;5.28;4.82;;;;;;;;;;4935784;29;20213;-85
2021/08/23 07:08:51;;;;;;;5.63;5.13;;;;;;;;;;4935829;29;20228;-85
2021/08/23 07:11:19;;;;;;;5.55;5.05;;;;;;;;;;4936393;29;20189;-85
2021/08/23 07:13:47;;;;;;;5.30;4.80;;;;;;;;;;4924178;29;20227;-84
2021/08/23 07:16:14;;;;;;;6.50;6.00;;;;;;;;;;4897793;29;20642;-83
2021/08/23 07:18:43;;;;;;;5.50;5.00;;;;;;;;;;4898548;29;20204;-83
2021/08/23 07:21:11;;;;;;;6.82;5.75;;;;;;;;;;4898374;29;20191;-82
2021/08/23 07:23:38;;;;;;;5.30;4.65;;;;;;;;;;4913324;29;20238;-85
2021/08/23 07:26:06;;;;;;;5.55;5.05;;;;;;;;;;4916431;29;20213;-84
2021/08/23 07:28:33;;;;;;;6.65;6.00;;;;;;;;;;4917235;29;20218;-82
2021/08/23 07:31:01;;;;;;;6.97;6.25;;;;;;;;;;4916963;29;20190;-83
2021/08/23 07:33:29;;;;;;;6.13;5.18;;;;;;;;;;4917019;29;20221;-84
2021/08/23 07:35:57;;;;;;;6.07;5.55;;;;;;;;;;4917105;29;20217;-82
2021/08/23 07:38:25;;;;;;;5.30;4.80;;;;;;;;;;4916570;29;20206;-83
2021/08/23 07:40:53;;;;;;;7.35;5.15;;;;;;;;;;4916856;29;20207;-84
2021/08/23 07:43:20;;;;;;;5.75;5.18;;;;;;;;;;4916660;29;20230;-82
2021/08/23 07:45:48;;;;;;;5.47;4.97;;;;;;;;;;4916899;29;20221;-83
2021/08/23 07:48:15;;;;;;;4.60;4.20;;;;;;;;;;4916519;29;20289;-84
2021/08/23 07:50:43;;;;;;;5.60;5.10;;;;;;;;;;4916808;29;20202;-83
2021/08/23 07:53:12;;;;;;;4.22;3.92;;;;;;;;;;4915951;29;20210;-82
2021/08/23 07:55:39;;;;;;;4.45;4.05;;;;;;;;;;4916296;29;20688;-85
2021/08/23 07:58:06;;;;;;;5.95;5.38;;;;;;;;;;4916196;29;20223;-84
2021/08/23 08:00:34;;;;;;;6.85;4.43;;;;;;;;;;4916836;29;20412;-84
2021/08/23 08:03:01;;;;;;;4.35;3.95;;;;;;;;;;4916341;29;20658;-82
2021/08/23 08:05:29;;;;;;;5.10;4.60;;;;;;;;;;4916706;29;20194;-84
2021/08/23 08:07:56;;;;;;;4.30;3.90;;;;;;;;;;4920075;29;20224;-82
2021/08/23 08:10:25;;;;;;;3.25;3.00;;;;;;;;;;4919394;29;20217;-82
2021/08/23 08:12:52;;;;;;;4.80;4.40;;;;;;;;;;4920263;29;20279;-81
2021/08/23 08:15:20;;;;;;;4.03;3.72;;;;;;;;;;4919558;29;20202;-82
2021/08/23 08:17:47;;;;;;;3.70;3.40;;;;;;;;;;4919462;29;20206;-82
2021/08/23 08:20:15;;;;;;;3.97;3.67;;;;;;;;;;4919619;29;20210;-83
2021/08/23 08:22:43;;;;;;;4.00;3.63;;;;;;;;;;4919922;29;20182;-82
2021/08/23 08:25:12;;;;;;;3.60;3.30;;;;;;;;;;4919447;29;20238;-81
2021/08/23 08:27:40;;;;;;;4.47;4.07;;;;;;;;;;4919920;29;20195;-82
2021/08/23 08:30:14;;;;;;;3.50;3.30;;;;;;;;;;4919801;29;20217;-82
2021/08/23 08:32:41;;;;;;;4.30;3.95;;;;;;;;;;4919569;29;20212;-83
2021/08/23 08:35:10;;;;;;;3.40;3.10;;;;;;;;;;4919010;29;20222;-82
2021/08/23 08:37:38;;;;;;;4.15;3.53;;;;;;;;;;4919282;29;20212;-82
2021/08/23 08:40:08;;;;;;;3.50;3.20;;;;;;;;;;4919602;29;20186;-83
2021/08/23 08:42:36;;;;;;;4.82;4.43;;;;;;;;;;4919411;29;20200;-83
2021/08/23 08:45:06;;;;;;;5.45;5.05;;;;;;;;;;4919023;29;20226;-82
2021/08/23 08:47:36;;;;;;;4.75;4.38;;;;;;;;;;4919495;29;20201;-83
2021/08/23 08:50:05;;;;;;;4.82;4.43;;;;;;;;;;4919220;29;20282;-82
2021/08/23 08:52:33;;;;;;;5.30;4.90;;;;;;;;;;4919114;29;20664;-82
2021/08/23 08:55:00;;;;;;;5.18;4.78;;;;;;;;;;4919004;29;20314;-83
2021/08/23 08:57:28;;;;;;;5.70;5.20;;;;;;;;;;4919190;29;20650;-82
2021/08/23 08:59:55;;;;;;;4.97;4.60;;;;;;;;;;4919246;29;20198;-82
2021/08/23 09:02:24;;;;;;;4.70;4.30;;;;;;;;;;4919112;29;20190;-82
2021/08/23 09:04:51;;;;;;;5.43;5.00;;;;;;;;;;4919139;29;20685;-81
2021/08/23 09:07:19;;;;;;;4.60;4.22;;;;;;;;;;4918413;29;20217;-83
2021/08/23 09:09:47;;;;;;;4.32;4.03;;;;;;;;;;4918808;29;20219;-84
2021/08/23 09:12:16;;;;;;;5.05;4.65;;;;;;;;;;4918972;29;20190;-83
2021/08/23 09:14:52;;;;;;;4.47;4.07;;;;;;;;;;4918554;29;20237;-82
2021/08/23 09:17:25;;;;;;;4.07;3.78;;;;;;;;;;4918354;29;20190;-83
2021/08/23 09:20:00;;;;;;;3.45;3.22;;;;;;;;;;4919085;29;20193;-82
2021/08/23 09:22:28;;;;;;;3.20;3.00;;;;;;;;;;4919043;29;20199;-84
2021/08/23 09:24:55;;;;;;;3.45;3.15;;;;;;;;;;4918391;29;20252;-82
2021/08/23 09:27:23;;;;;;;2.30;2.20;;;;;;;;;;4918699;29;20206;-83
2021/08/23 09:29:56;;;;;;;2.63;2.42;;;;;;;;;;4932672;23;20755;-84
2021/08/23 09:32:26;;;;;;;3.70;3.40;;;;;;;;;;4919647;29;20285;-85
2021/08/23 09:34:54;;;;;;;2.72;2.53;;;;;;;;;;4919642;29;20194;-84
2021/08/23 09:37:23;;;;;;;3.22;3.03;;;;;;;;;;4919898;29;20197;-84
2021/08/23 09:39:51;;;;;;;2.30;2.20;;;;;;;;;;4920215;29;20233;-85
2021/08/23 09:42:21;;;;;;;2.63;2.42;;;;;;;;;;4920237;29;20198;-83
2021/08/23 09:44:49;;;;;;;2.47;2.38;;;;;;;;;;4919879;29;20392;-85
2021/08/23 09:47:16;;;;;;;2.60;2.40;;;;;;;;;;4921220;29;20199;-84
2021/08/23 09:49:47;;;;;;;2.72;2.53;;;;;;;;;;4918824;29;20222;-85
2021/08/23 09:52:22;;;;;;;2.47;2.38;;;;;;;;;;4919379;29;20210;-84
2021/08/23 09:55:01;;;;;;;2.63;2.42;;;;;;;;;;4919505;29;20645;-85
2021/08/23 09:57:29;;;;;;;2.20;2.10;;;;;;;;;;4919024;29;20250;-85
2021/08/23 09:59:58;;;;;;;2.40;2.25;;;;;;;;;;4903816;29;20223;-85
2021/08/23 10:02:26;;;;;;;2.33;2.22;;;;;;;;;;4900418;29;20187;-83
2021/08/23 10:04:55;;;;;;;2.20;2.10;;;;;;;;;;4900486;29;20657;-84
2021/08/23 10:07:26;;;;;;;2.05;1.95;;;;;;;;;;4900159;29;20194;-84
2021/08/23 10:09:54;;;;;;;2.60;2.40;;;;;;;;;;4915487;29;20230;-84
2021/08/23 10:12:22;;;;;;;2.33;2.20;;;;;;;;;;4919368;29;20183;-84
2021/08/23 10:14:50;;;;;;;2.60;2.40;;;;;;;;;;4918515;29;20211;-84
2021/08/23 10:17:17;;;;;;;1.90;1.80;;;;;;;;;;4919836;29;20201;-85
2021/08/23 10:19:45;;;;;;;2.05;1.95;;;;;;;;;;4918969;29;20236;-85
2021/08/23 10:22:16;;;;;;;2.75;2.55;;;;;;;;;;4918310;29;20189;-85
2021/08/23 10:24:43;;;;;;;2.38;2.17;;;;;;;;;;4918581;29;20645;-85
2021/08/23 10:27:23;;;;;;;2.75;2.55;;;;;;;;;;4918668;29;20676;-84
2021/08/23 10:29:51;;;;;;;2.75;2.55;;;;;;;;;;4931266;29;20260;-85
2021/08/23 10:32:19;;;;;;;2.80;2.60;;;;;;;;;;4938102;29;20281;-84
2021/08/23 10:34:46;;;;;;;3.38;3.08;;;;;;;;;;4937364;29;20197;-86
2021/08/23 10:37:21;;;;;;;4.05;3.45;;;;;;;;;;4937510;29;20194;-84
2021/08/23 10:40:00;;;;;;;2.95;2.75;;;;;;;;;;4922209;29;20221;-85
2021/08/23 10:42:38;;;;;;;2.97;2.75;;;;;;;;;;4918592;29;20258;-85
2021/08/23 10:45:12;;;;;;;6.32;3.78;;;;;;;;;;4918446;29;20186;-85
2021/08/23 10:47:40;;;;;;;3.50;3.28;;;;;;;;;;4918398;29;20591;-85
2021/08/23 10:50:08;;;;;;;4.55;4.15;;;;;;;;;;4901334;29;20235;-84
2021/08/23 10:52:37;;;;;;;5.30;4.90;;;;;;;;;;4897419;29;20218;-85
2021/08/23 10:55:08;;;;;;;5.32;4.82;;;;;;;;;;4899287;29;20670;-84
2021/08/23 10:57:36;;;;;;;4.90;4.50;;;;;;;;;;4897535;29;20211;-85
2021/08/23 11:00:14;;;;;;;4.70;4.35;;;;;;;;;;4915287;29;20226;-84
2021/08/23 11:02:42;;;;;;;5.95;5.35;;;;;;;;;;4917843;29;20202;-84
2021/08/23 11:05:14;;;;;;;5.30;4.90;;;;;;;;;;4918272;29;20194;-85
2021/08/23 11:07:47;;;;;;;5.75;5.22;;;;;;;;;;4917762;29;20207;-86
2021/08/23 11:10:18;;;;;;;5.50;5.10;;;;;;;;;;4935734;29;20232;-84
2021/08/23 11:12:47;;;;;;;5.85;5.43;;;;;;;;;;4936715;29;20577;-84
2021/08/23 11:15:19;;;;;;;6.70;6.10;;;;;;;;;;4936519;29;20201;-85
2021/08/23 11:17:49;;;;;;;6.05;5.55;;;;;;;;;;4936460;29;20704;-85
2021/08/23 11:20:22;;;;;;;5.97;5.53;;;;;;;;;;4918291;29;20210;-83
2021/08/23 11:22:57;;;;;;;6.63;6.03;;;;;;;;;;4917651;29;20190;-85
2021/08/23 11:25:30;;;;;;;7.13;6.50;;;;;;;;;;4918278;29;20194;-84
2021/08/23 11:27:57;;;;;;;6.68;6.07;;;;;;;;;;4918066;29;20568;-82
2021/08/23 11:30:30;;;;;;;6.65;6.05;;;;;;;;;;4936693;29;20229;-85
2021/08/23 11:32:57;;;;;;;6.93;6.32;;;;;;;;;;4936979;29;20197;-84
2021/08/23 11:35:25;;;;;;;5.95;5.45;;;;;;;;;;4937243;29;20209;-85
2021/08/23 11:38:00;;;;;;;7.18;5.65;;;;;;;;;;4936880;29;20194;-85
2021/08/23 11:40:28;;;;;;;6.72;6.13;;;;;;;;;;4935781;29;20251;-85
2021/08/23 11:42:59;;;;;;;7.10;6.50;;;;;;;;;;4936408;29;20582;-84
2021/08/23 11:45:28;;;;;;;6.75;6.15;;;;;;;;;;4936016;29;20189;-85
2021/08/23 11:47:56;;;;;;;6.43;5.82;;;;;;;;;;4936326;29;20201;-85
2021/08/23 11:50:24;;;;;;;6.72;6.13;;;;;;;;;;4936591;29;20605;-84
2021/08/23 11:52:55;;;;;;;5.88;5.32;;;;;;;;;;4927468;29;20198;-83
2021/08/23 11:55:32;;;;;;;6.00;5.50;;;;;;;;;;4918159;29;20218;-85
2021/08/23 11:58:01;;;;;;;7.93;7.22;;;;;;;;;;4918589;29;20216;-85
2021/08/23 12:00:29;;;;;;;7.10;6.40;;;;;;;;;;4936743;29;20210;-85
2021/08/23 12:03:10;;;;;;;5.70;5.20;;;;;;;;;;4938227;29;20198;-85
2021/08/23 12:05:40;;;;;;;7.43;6.82;;;;;;;;;;4938052;29;20189;-85
2021/08/23 12:08:09;;;;;;;7.20;6.50;;;;;;;;;;4921988;29;20206;-84
2021/08/23 12:10:39;;;;;;;8.30;7.35;;;;;;;;;;4918452;29;20214;-85
2021/08/23 12:13:12;;;;;;;7.18;6.47;;;;;;;;;;4915695;29;20198;-85
2021/08/23 12:15:53;;;;;;;7.18;6.57;;;;;;;;;;4916461;29;20798;-84
2021/08/23 12:18:32;;;;;;;8.27;7.47;;;;;;;;;;4919115;29;20210;-84
2021/08/23 12:21:16;;;;;;;7.47;6.78;;;;;;;;;;4930897;29;20234;-85
2021/08/23 12:23:53;;;;;;;7.47;6.78;;;;;;;;;;4897727;29;20187;-85
2021/08/23 12:26:32;;;;;;;7.70;7.05;;;;;;;;;;4897529;29;20199;-86
2021/08/23 12:29:02;;;;;;;9.38;8.48;;;;;;;;;;4918375;29;20272;-86
2021/08/23 12:31:30;;;;;;;6.63;6.03;;;;;;;;;;4935228;29;20230;-86
2021/08/23 12:33:58;;;;;;;8.63;7.93;;;;;;;;;;4917064;29;20198;-85
2021/08/23 12:36:26;;;;;;;7.28;6.55;;;;;;;;;;4916112;29;20186;-86
2021/08/23 12:38:53;;;;;;;6.55;5.95;;;;;;;;;;4922979;29;20217;-85
2021/08/23 12:41:21;;;;;;;6.07;5.50;;;;;;;;;;4935105;29;20187;-83
2021/08/23 12:43:50;;;;;;;7.13;6.53;;;;;;;;;;4934410;29;20188;-85
2021/08/23 12:46:17;;;;;;;7.97;7.20;;;;;;;;;;4933660;29;20220;-85
2021/08/23 12:48:45;;;;;;;7.45;6.65;;;;;;;;;;4925513;29;20744;-84
2021/08/23 12:51:13;;;;;;;5.97;5.55;;;;;;;;;;4917316;29;20282;-86
2021/08/23 12:53:43;;;;;;;5.85;5.35;;;;;;;;;;4918916;29;20302;-86
2021/08/23 12:56:11;;;;;;;5.50;5.00;;;;;;;;;;4914323;29;20199;-86
2021/08/23 12:58:38;;;;;;;5.93;5.32;;;;;;;;;;4910897;29;20210;-85
2021/08/23 13:01:08;;;;;;;5.53;5.13;;;;;;;;;;4938554;29;20186;-85
2021/08/23 13:03:36;;;;;;;5.50;5.10;;;;;;;;;;4938363;29;20661;-86
2021/08/23 13:06:03;;;;;;;6.57;5.97;;;;;;;;;;4938352;29;20190;-86
2021/08/23 13:08:30;;;;;;;5.65;5.18;;;;;;;;;;4933671;29;20211;-86
2021/08/23 13:10:58;;;;;;;5.07;4.68;;;;;;;;;;4919409;29;20232;-85
2021/08/23 13:13:25;;;;;;;4.57;4.18;;;;;;;;;;4916078;29;20211;-84
2021/08/23 13:15:53;;;;;;;4.25;3.95;;;;;;;;;;4901688;29;20183;-88
2021/08/23 13:18:22;;;;;;;3.80;3.50;;;;;;;;;;4920551;29;20217;-86
2021/08/23 13:20:50;;;;;;;4.22;3.92;;;;;;;;;;4922120;29;20206;-86
2021/08/23 13:23:17;;;;;;;4.95;4.53;;;;;;;;;;4906203;29;20210;-87
2021/08/23 13:25:45;;;;;;;5.05;4.63;;;;;;;;;;4902117;29;20218;-86
2021/08/23 13:28:13;;;;;;;4.22;3.92;;;;;;;;;;4903411;29;20314;-85
2021/08/23 13:30:41;;;;;;;4.68;4.22;;;;;;;;;;4937145;29;20664;-86
2021/08/23 13:33:09;;;;;;;4.65;4.32;;;;;;;;;;4922413;29;20214;-85
2021/08/23 13:35:39;;;;;;;5.15;4.75;;;;;;;;;;4918594;29;20195;-85
2021/08/23 13:38:09;;;;;;;4.43;4.07;;;;;;;;;;4918067;29;20197;-86
2021/08/23 13:40:39;;;;;;;3.90;3.60;;;;;;;;;;4918571;29;20228;-85
2021/08/23 13:43:09;;;;;;;4.82;3.88;;;;;;;;;;4918943;29;20195;-85
2021/08/23 13:45:39;;;;;;;4.60;4.20;;;;;;;;;;4918632;29;20297;-87
2021/08/23 13:48:08;;;;;;;4.43;4.13;;;;;;;;;;4919364;29;20302;-85
2021/08/23 13:50:38;;;;;;;4.22;3.92;;;;;;;;;;4937310;29;20197;-87
2021/08/23 13:53:06;;;;;;;3.33;3.13;;;;;;;;;;4937545;29;20216;-87
2021/08/23 13:55:34;;;;;;;3.60;3.30;;;;;;;;;;4936936;29;20189;-89
2021/08/23 13:58:02;;;;;;;3.60;3.30;;;;;;;;;;4935526;29;20557;-87
2021/08/23 14:00:29;;;;;;;5.30;3.50;;;;;;;;;;4899294;29;20196;-86
2021/08/23 14:02:57;;;;;;;2.70;2.50;;;;;;;;;;4898817;29;20676;-85
2021/08/23 14:05:24;;;;;;;4.55;2.70;;;;;;;;;;4899100;29;20207;-86
2021/08/23 14:07:54;;;;;;;2.58;2.38;;;;;;;;;;4899293;29;20571;-86
2021/08/23 14:10:22;;;;;;;2.45;2.28;;;;;;;;;;4917645;29;20199;-85
2021/08/23 14:12:50;;;;;;;2.28;2.08;;;;;;;;;;4917859;29;20211;-85
2021/08/23 14:15:18;;;;;;;2.28;2.08;;;;;;;;;;4918014;29;20210;-86
2021/08/23 14:17:45;;;;;;;2.17;1.83;;;;;;;;;;4916341;29;20695;-85
2021/08/23 14:20:14;;;;;;;1.88;1.77;;;;;;;;;;4898862;29;20231;-86
2021/08/23 14:22:43;;;;;;;1.67;1.58;;;;;;;;;;4899135;29;20191;-85
2021/08/23 14:25:13;;;;;;;2.47;2.28;;;;;;;;;;4898748;29;20197;-86
2021/08/23 14:27:41;;;;;;;2.53;2.33;;;;;;;;;;4898024;29;20653;-87
2021/08/23 14:30:10;;;;;;;3.00;2.00;;;;;;;;;;4902019;29;20230;-86
2021/08/23 14:32:38;;;;;;;1.90;1.80;;;;;;;;;;4916752;29;20214;-85
2021/08/23 14:35:07;;;;;;;1.60;1.50;;;;;;;;;;4915599;29;20220;-86
2021/08/23 14:37:35;;;;;;;1.60;1.50;;;;;;;;;;4916309;29;20201;-86
2021/08/23 14:40:02;;;;;;;2.92;2.63;;;;;;;;;;4917649;29;20735;-84
2021/08/23 14:42:32;;;;;;;1.60;1.50;;;;;;;;;;4917512;29;20187;-86
2021/08/23 14:44:59;;;;;;;1.70;1.60;;;;;;;;;;4917318;29;20241;-86
2021/08/23 14:47:27;;;;;;;1.60;1.50;;;;;;;;;;4917158;29;20194;-86
2021/08/23 14:49:54;;;;;;;1.38;1.30;;;;;;;;;;4917054;29;20732;-85
2021/08/23 14:52:21;;;;;;;1.70;1.60;;;;;;;;;;4917181;29;20214;-85